Sugar Grove, NC

8:06 AM EDT on May 04, 2015 (GMT -0400)
Russ Norris | | Change Station
CLOSE
Current Station
Personal Weather Station
Location: Elk Park, NC
Elevation: 3474 ft
Nearby Weather Stations

Elev 3474 ft 36.25 °N, 81.92 °W | Updated 5 seconds ago

Clear
Clear
61.2 °F
Feels Like 61.2 °F
N
1.0
Wind Variable Wind from ESE
Gusts 2.0 mph

Today
High -- | Low -- °F
--% Chance of Precip.
Yesterday
High -- | Low -- °F
Precip. -- in
6:31 AM 8:17 PM
Full, 100% visible
Pressure 30.34 in
Visibility 10.0 miles
Clouds Clear
Dew Point 49 °F
Humidity 65%
Rainfall 0.00 in
Snow Depth Not available.
UV 1 out of 12
Pollen 8.70 out of 12
Air Quality Not available.
Flu Activity No Activity
METAR KTNB 041155Z AUTO 00000KT 10SM CLR 09/08 A3034 RMK AO2 T00890076 10108 20057

More Conditions Fewer Conditions

Pressure 30.34 in
Visibility 10.0 miles
Clouds Clear
Dew Point 49 °F
Humidity 65%
Rainfall 0.00 in
Snow Depth Not available.
UV 1 out of 12
Pollen 8.70 out of 12
Air Quality Not available.
Flu Activity No Activity
METAR KTNB 041155Z AUTO 00000KT 10SM CLR 09/08 A3034 RMK AO2 T00890076 10108 20057

More Conditions Fewer Conditions

Nepal has a long way to go to dig out and rebuild from a devastating earthquake. We have teamed up with several charities and organizations to make contributing to the relief effort as easy as possible.
How you can help: Portlight Strategies | Red Cross

10-Day Weather Forecast

Almanac

Astronomy

May. 04, 2015 Rise Set
Actual Time
Civil Twilight
Nautical Twilight
Astronomical Twilight
Moon
Length of Visible Light
Length of Day
Tomorrow will be .
, % of the Moon is Illuminated

Today's Extremes

State Highs State Lows

Community

WunderPhotos

Upload Photos

1,818,580 photos uploaded!

WunderBlogs® & News

Nearby

Air Quality

  Air Quality AQ Index Pollutant
Not available.

Snow Depth

Station Depth Elevation

Earthquake Activity

City Distance Mag. Time & Date
Minimum magnitude displayed is 2.5.

Coastal Water Temperatures

Place Temperature

Stations

Nearby Weather Stations

Station Location Temp. Windchill Dew Point Humidity Wind Precip. Elev Updated Type